<?xml version="1.0" encoding="UTF-8" standalone="no" ?>
<gpx xmlns="http://www.topografix.com/GPX/1/1" xmlns:xsi="http://www.w3.org/2001/XMLSchema-instance" xsi:schemaLocation="http://www.topografix.com/GPX/1/1 http://www.topografix.com/GPX/1/1/gpx.xsd" version="1.1" creator="VisuGPX - https://www.visugpx.com">
  <metadata>
    <name>Blandas - Cirque de Navacelles</name>
    <desc><![CDATA[2016-05 - Blandas - moulin de la Foux - gorge de la Vis - Navacelles

[b]album[/b] : [url]https://goo.gl/photos/KY8fzkVBA3P7hk919[/url]
[img]https://4.bp.blogspot.com/-amzgslQdKzM/WNGrp0Yi1HI/AAAAAAAARJY/bW-W5BVzpQYotPgxHRMMJ5XF-04iXEyggCLcB/s1600/2016-05_Navacelles_i.JPG[/img]
[b]Idées de randonnées dans la même région[/b]
Parcours : [url]https://www.visugpx.com/membres/24856/causses/la-vis-navacelles/[/url]
Photos : [url]https://jcvertygo.blogspot.com/p/vis.html[/url]]]></desc>
  </metadata>
  <trk>
    <name><![CDATA[Blandas - Cirque de Navacelles_1]]></name>
    <trkseg>
      <trkpt lat="43.90346" lon="3.5147">
        <ele>650.4</ele>
        <time>2016-05-21T10:42:03Z</time>
      </trkpt>
      <trkpt lat="43.90337" lon="3.5147">
        <ele>650.15262243245</ele>
        <time>2016-05-21T10:42:08Z</time>
      </trkpt>
      <trkpt lat="43.90334" lon="3.51482">
        <ele>653.40632155735</ele>
        <time>2016-05-21T10:42:38Z</time>
      </trkpt>
      <trkpt lat="43.90333" lon="3.51483">
        <ele>653.40632155735</ele>
        <time>2016-05-21T10:42:43Z</time>
      </trkpt>
      <trkpt lat="43.90332" lon="3.51484">
        <ele>653.40632155735</ele>
        <time>2016-05-21T10:43:13Z</time>
      </trkpt>
      <trkpt lat="43.90331" lon="3.51484">
        <ele>653.40632155735</ele>
        <time>2016-05-21T10:43:18Z</time>
      </trkpt>
      <trkpt lat="43.90332" lon="3.51482">
        <ele>653.40632155735</ele>
        <time>2016-05-21T10:43:38Z</time>
      </trkpt>
      <trkpt lat="43.90332" lon="3.51482">
        <ele>653.40632155735</ele>
        <time>2016-05-21T10:43:43Z</time>
      </trkpt>
      <trkpt lat="43.90332" lon="3.51479">
        <ele>653.40632155735</ele>
        <time>2016-05-21T10:50:05Z</time>
      </trkpt>
      <trkpt lat="43.90322" lon="3.51455">
        <ele>651.51879215829</ele>
        <time>2016-05-21T10:53:31Z</time>
      </trkpt>
      <trkpt lat="43.9032" lon="3.51451">
        <ele>651.51879215829</ele>
        <time>2016-05-21T10:53:43Z</time>
      </trkpt>
      <trkpt lat="43.90316" lon="3.51458">
        <ele>651.51879215829</ele>
        <time>2016-05-21T10:54:03Z</time>
      </trkpt>
      <trkpt lat="43.9019" lon="3.5157">
        <ele>647.22907087761</ele>
        <time>2016-05-21T10:57:12Z</time>
      </trkpt>
      <trkpt lat="43.90188" lon="3.5157">
        <ele>647.22907087761</ele>
        <time>2016-05-21T10:57:13Z</time>
      </trkpt>
      <trkpt lat="43.90122" lon="3.51561">
        <ele>645.56472635002</ele>
        <time>2016-05-21T10:58:28Z</time>
      </trkpt>
      <trkpt lat="43.90102" lon="3.51545">
        <ele>645.62707458556</ele>
        <time>2016-05-21T11:00:00Z</time>
      </trkpt>
      <trkpt lat="43.90101" lon="3.51545">
        <ele>645.62707458556</ele>
        <time>2016-05-21T11:00:00Z</time>
      </trkpt>
      <trkpt lat="43.9008" lon="3.51533">
        <ele>645.96701615501</ele>
        <time>2016-05-21T11:01:20Z</time>
      </trkpt>
      <trkpt lat="43.90013" lon="3.51527">
        <ele>646.15272038312</ele>
        <time>2016-05-21T11:02:26Z</time>
      </trkpt>
      <trkpt lat="43.9" lon="3.51527">
        <ele>646.08660165514</ele>
        <time>2016-05-21T11:03:08Z</time>
      </trkpt>
      <trkpt lat="43.89993" lon="3.51514">
        <ele>645.6969259394</ele>
        <time>2016-05-21T11:03:08Z</time>
      </trkpt>
      <trkpt lat="43.89982" lon="3.5151">
        <ele>644.83681819946</ele>
        <time>2016-05-21T11:03:36Z</time>
      </trkpt>
      <trkpt lat="43.89985" lon="3.51497">
        <ele>643.39132137565</ele>
        <time>2016-05-21T11:05:03Z</time>
      </trkpt>
      <trkpt lat="43.89984" lon="3.51501">
        <ele>643.39132137565</ele>
        <time>2016-05-21T11:05:17Z</time>
      </trkpt>
      <trkpt lat="43.89984" lon="3.51502">
        <ele>643.39132137565</ele>
        <time>2016-05-21T11:05:18Z</time>
      </trkpt>
      <trkpt lat="43.90027" lon="3.51499">
        <ele>641.94683052023</ele>
        <time>2016-05-21T11:07:13Z</time>
      </trkpt>
      <trkpt lat="43.90028" lon="3.51496">
        <ele>641.94683052023</ele>
        <time>2016-05-21T11:07:15Z</time>
      </trkpt>
      <trkpt lat="43.90046" lon="3.51497">
        <ele>640.71689424033</ele>
        <time>2016-05-21T11:07:33Z</time>
      </trkpt>
      <trkpt lat="43.90047" lon="3.51496">
        <ele>640.71689424033</ele>
        <time>2016-05-21T11:07:38Z</time>
      </trkpt>
      <trkpt lat="43.90051" lon="3.51495">
        <ele>640.71689424033</ele>
        <time>2016-05-21T11:07:48Z</time>
      </trkpt>
      <trkpt lat="43.90042" lon="3.51478">
        <ele>639.56016297649</ele>
        <time>2016-05-21T11:08:12Z</time>
      </trkpt>
      <trkpt lat="43.90043" lon="3.51477">
        <ele>639.56016297649</ele>
        <time>2016-05-21T11:08:13Z</time>
      </trkpt>
      <trkpt lat="43.90036" lon="3.51441">
        <ele>639.46394638723</ele>
        <time>2016-05-21T11:09:18Z</time>
      </trkpt>
      <trkpt lat="43.90014" lon="3.51412">
        <ele>639.60782460669</ele>
        <time>2016-05-21T11:10:00Z</time>
      </trkpt>
      <trkpt lat="43.90013" lon="3.51396">
        <ele>639.77210637616</ele>
        <time>2016-05-21T11:10:17Z</time>
      </trkpt>
      <trkpt lat="43.9002" lon="3.51287">
        <ele>640.89010872705</ele>
        <time>2016-05-21T11:11:49Z</time>
      </trkpt>
      <trkpt lat="43.90043" lon="3.5123">
        <ele>642.21435602753</ele>
        <time>2016-05-21T11:12:45Z</time>
      </trkpt>
      <trkpt lat="43.90067" lon="3.51202">
        <ele>643.73837905994</ele>
        <time>2016-05-21T11:13:18Z</time>
      </trkpt>
      <trkpt lat="43.90102" lon="3.51148">
        <ele>645.74384313696</ele>
        <time>2016-05-21T11:14:55Z</time>
      </trkpt>
      <trkpt lat="43.90108" lon="3.51137">
        <ele>647.5152650928</ele>
        <time>2016-05-21T11:14:55Z</time>
      </trkpt>
      <trkpt lat="43.90114" lon="3.51128">
        <ele>649.13686261612</ele>
        <time>2016-05-21T11:15:11Z</time>
      </trkpt>
      <trkpt lat="43.90124" lon="3.51122">
        <ele>650.59481691652</ele>
        <time>2016-05-21T11:15:11Z</time>
      </trkpt>
      <trkpt lat="43.9006" lon="3.51015">
        <ele>651.97717553702</ele>
        <time>2016-05-21T11:17:33Z</time>
      </trkpt>
      <trkpt lat="43.9006" lon="3.51009">
        <ele>651.97717553702</ele>
        <time>2016-05-21T11:17:38Z</time>
      </trkpt>
      <trkpt lat="43.9006" lon="3.50997">
        <ele>653.36130467085</ele>
        <time>2016-05-21T11:17:56Z</time>
      </trkpt>
      <trkpt lat="43.90052" lon="3.50986">
        <ele>654.57579165116</ele>
        <time>2016-05-21T11:17:56Z</time>
      </trkpt>
      <trkpt lat="43.90046" lon="3.50975">
        <ele>655.66215002469</ele>
        <time>2016-05-21T11:18:14Z</time>
      </trkpt>
      <trkpt lat="43.90044" lon="3.50968">
        <ele>655.66215002469</ele>
        <time>2016-05-21T11:18:14Z</time>
      </trkpt>
      <trkpt lat="43.90043" lon="3.50966">
        <ele>655.66215002469</ele>
        <time>2016-05-21T11:18:31Z</time>
      </trkpt>
      <trkpt lat="43.90045" lon="3.50967">
        <ele>657.20089103801</ele>
        <time>2016-05-21T11:18:44Z</time>
      </trkpt>
      <trkpt lat="43.901" lon="3.50933">
        <ele>659.13864889655</ele>
        <time>2016-05-21T11:19:45Z</time>
      </trkpt>
      <trkpt lat="43.90106" lon="3.5091">
        <ele>660.91494191377</ele>
        <time>2016-05-21T11:19:57Z</time>
      </trkpt>
      <trkpt lat="43.90107" lon="3.50908">
        <ele>660.91494191377</ele>
        <time>2016-05-21T11:19:58Z</time>
      </trkpt>
      <trkpt lat="43.90119" lon="3.5089">
        <ele>662.62248375016</ele>
        <time>2016-05-21T11:20:22Z</time>
      </trkpt>
      <trkpt lat="43.90138" lon="3.50853">
        <ele>664.30541407581</ele>
        <time>2016-05-21T11:20:47Z</time>
      </trkpt>
      <trkpt lat="43.90204" lon="3.50811">
        <ele>665.83757275837</ele>
        <time>2016-05-21T11:21:38Z</time>
      </trkpt>
      <trkpt lat="43.90221" lon="3.50795">
        <ele>667.17043649616</ele>
        <time>2016-05-21T11:21:55Z</time>
      </trkpt>
      <trkpt lat="43.90226" lon="3.50785">
        <ele>667.17043649616</ele>
        <time>2016-05-21T11:22:00Z</time>
      </trkpt>
      <trkpt lat="43.90242" lon="3.50765">
        <ele>668.28654274463</ele>
        <time>2016-05-21T11:22:27Z</time>
      </trkpt>
      <trkpt lat="43.90248" lon="3.50752">
        <ele>669.18401676332</ele>
        <time>2016-05-21T11:22:27Z</time>
      </trkpt>
      <trkpt lat="43.90225" lon="3.50708">
        <ele>669.84761328115</ele>
        <time>2016-05-21T11:23:04Z</time>
      </trkpt>
      <trkpt lat="43.90222" lon="3.50704">
        <ele>669.84761328115</ele>
        <time>2016-05-21T11:23:04Z</time>
      </trkpt>
      <trkpt lat="43.90217" lon="3.50692">
        <ele>670.39332496443</ele>
        <time>2016-05-21T11:23:33Z</time>
      </trkpt>
      <trkpt lat="43.90218" lon="3.50687">
        <ele>670.39332496443</ele>
        <time>2016-05-21T11:23:33Z</time>
      </trkpt>
      <trkpt lat="43.90208" lon="3.5053">
        <ele>669.58636975453</ele>
        <time>2016-05-21T11:25:25Z</time>
      </trkpt>
      <trkpt lat="43.90214" lon="3.50464">
        <ele>667.46909311586</ele>
        <time>2016-05-21T11:26:26Z</time>
      </trkpt>
      <trkpt lat="43.90216" lon="3.50454">
        <ele>667.46909311586</ele>
        <time>2016-05-21T11:26:26Z</time>
      </trkpt>
      <trkpt lat="43.90217" lon="3.50402">
        <ele>664.05945038122</ele>
        <time>2016-05-21T11:27:05Z</time>
      </trkpt>
      <trkpt lat="43.90217" lon="3.50398">
        <ele>664.05945038122</ele>
        <time>2016-05-21T11:27:30Z</time>
      </trkpt>
      <trkpt lat="43.90224" lon="3.50372">
        <ele>659.91305543314</ele>
        <time>2016-05-21T11:27:30Z</time>
      </trkpt>
      <trkpt lat="43.90228" lon="3.50361">
        <ele>655.60426504335</ele>
        <time>2016-05-21T11:27:42Z</time>
      </trkpt>
      <trkpt lat="43.90228" lon="3.50358">
        <ele>655.60426504335</ele>
        <time>2016-05-21T11:27:42Z</time>
      </trkpt>
      <trkpt lat="43.90212" lon="3.50293">
        <ele>650.60278931544</ele>
        <time>2016-05-21T11:28:28Z</time>
      </trkpt>
      <trkpt lat="43.90185" lon="3.50269">
        <ele>645.40059240607</ele>
        <time>2016-05-21T11:28:58Z</time>
      </trkpt>
      <trkpt lat="43.90184" lon="3.50269">
        <ele>645.40059240607</ele>
        <time>2016-05-21T11:28:59Z</time>
      </trkpt>
      <trkpt lat="43.90138" lon="3.50238">
        <ele>640.00911244713</ele>
        <time>2016-05-21T11:29:38Z</time>
      </trkpt>
      <trkpt lat="43.90131" lon="3.50217">
        <ele>634.78486076609</ele>
        <time>2016-05-21T11:30:16Z</time>
      </trkpt>
      <trkpt lat="43.9009" lon="3.50088">
        <ele>628.83694421256</ele>
        <time>2016-05-21T11:31:57Z</time>
      </trkpt>
      <trkpt lat="43.90014" lon="3.49985">
        <ele>622.33548757175</ele>
        <time>2016-05-21T11:33:42Z</time>
      </trkpt>
      <trkpt lat="43.89975" lon="3.49966">
        <ele>615.68142722021</ele>
        <time>2016-05-21T11:34:15Z</time>
      </trkpt>
      <trkpt lat="43.89972" lon="3.49961">
        <ele>615.68142722021</ele>
        <time>2016-05-21T11:34:15Z</time>
      </trkpt>
      <trkpt lat="43.89949" lon="3.49929">
        <ele>609.29019817014</ele>
        <time>2016-05-21T11:34:49Z</time>
      </trkpt>
      <trkpt lat="43.89942" lon="3.49925">
        <ele>609.29019817014</ele>
        <time>2016-05-21T11:34:49Z</time>
      </trkpt>
      <trkpt lat="43.89928" lon="3.49927">
        <ele>603.08969745895</ele>
        <time>2016-05-21T11:35:07Z</time>
      </trkpt>
      <trkpt lat="43.89923" lon="3.49922">
        <ele>603.08969745895</ele>
        <time>2016-05-21T11:35:07Z</time>
      </trkpt>
      <trkpt lat="43.89914" lon="3.49906">
        <ele>597.04114474331</ele>
        <time>2016-05-21T11:35:23Z</time>
      </trkpt>
      <trkpt lat="43.89914" lon="3.49905">
        <ele>597.04114474331</ele>
        <time>2016-05-21T11:35:24Z</time>
      </trkpt>
      <trkpt lat="43.89905" lon="3.49891">
        <ele>591.25732844754</ele>
        <time>2016-05-21T11:35:48Z</time>
      </trkpt>
      <trkpt lat="43.89884" lon="3.49876">
        <ele>585.5390109746</ele>
        <time>2016-05-21T11:36:02Z</time>
      </trkpt>
      <trkpt lat="43.89846" lon="3.49866">
        <ele>579.10214375512</ele>
        <time>2016-05-21T11:36:43Z</time>
      </trkpt>
      <trkpt lat="43.89844" lon="3.49867">
        <ele>579.10214375512</ele>
        <time>2016-05-21T11:36:43Z</time>
      </trkpt>
      <trkpt lat="43.8981" lon="3.49846">
        <ele>572.03767373826</ele>
        <time>2016-05-21T11:37:29Z</time>
      </trkpt>
      <trkpt lat="43.89808" lon="3.49835">
        <ele>572.03767373826</ele>
        <time>2016-05-21T11:37:29Z</time>
      </trkpt>
      <trkpt lat="43.89808" lon="3.49816">
        <ele>565.23652427033</ele>
        <time>2016-05-21T11:37:40Z</time>
      </trkpt>
      <trkpt lat="43.89821" lon="3.49698">
        <ele>557.14497204608</ele>
        <time>2016-05-21T11:38:45Z</time>
      </trkpt>
      <trkpt lat="43.89825" lon="3.49685">
        <ele>549.79005322373</ele>
        <time>2016-05-21T11:38:52Z</time>
      </trkpt>
      <trkpt lat="43.89859" lon="3.4962">
        <ele>541.63151082884</ele>
        <time>2016-05-21T11:39:39Z</time>
      </trkpt>
      <trkpt lat="43.89863" lon="3.49616">
        <ele>541.63151082884</ele>
        <time>2016-05-21T11:39:44Z</time>
      </trkpt>
      <trkpt lat="43.89881" lon="3.49599">
        <ele>533.78800605969</ele>
        <time>2016-05-21T11:40:03Z</time>
      </trkpt>
      <trkpt lat="43.899" lon="3.49572">
        <ele>526.2506202853</ele>
        <time>2016-05-21T11:40:29Z</time>
      </trkpt>
      <trkpt lat="43.89926" lon="3.49536">
        <ele>518.56848749115</ele>
        <time>2016-05-21T11:40:55Z</time>
      </trkpt>
      <trkpt lat="43.89929" lon="3.49528">
        <ele>518.56848749115</ele>
        <time>2016-05-21T11:40:55Z</time>
      </trkpt>
      <trkpt lat="43.8995" lon="3.49502">
        <ele>510.94454236747</ele>
        <time>2016-05-21T11:41:18Z</time>
      </trkpt>
      <trkpt lat="43.89977" lon="3.49451">
        <ele>503.15419006265</ele>
        <time>2016-05-21T11:41:57Z</time>
      </trkpt>
      <trkpt lat="43.89982" lon="3.49443">
        <ele>503.15419006265</ele>
        <time>2016-05-21T11:42:00Z</time>
      </trkpt>
      <trkpt lat="43.90007" lon="3.49386">
        <ele>495.18119191762</ele>
        <time>2016-05-21T11:42:38Z</time>
      </trkpt>
      <trkpt lat="43.90007" lon="3.4938">
        <ele>495.18119191762</ele>
        <time>2016-05-21T11:42:38Z</time>
      </trkpt>
      <trkpt lat="43.9002" lon="3.49356">
        <ele>487.47744590584</ele>
        <time>2016-05-21T11:42:53Z</time>
      </trkpt>
      <trkpt lat="43.90022" lon="3.49345">
        <ele>487.47744590584</ele>
        <time>2016-05-21T11:42:58Z</time>
      </trkpt>
      <trkpt lat="43.90022" lon="3.49329">
        <ele>480.39899290876</ele>
        <time>2016-05-21T11:43:08Z</time>
      </trkpt>
      <trkpt lat="43.90024" lon="3.49321">
        <ele>480.39899290876</ele>
        <time>2016-05-21T11:43:13Z</time>
      </trkpt>
      <trkpt lat="43.90026" lon="3.49302">
        <ele>473.98067084736</ele>
        <time>2016-05-21T11:43:23Z</time>
      </trkpt>
      <trkpt lat="43.90026" lon="3.49293">
        <ele>473.98067084736</ele>
        <time>2016-05-21T11:43:28Z</time>
      </trkpt>
      <trkpt lat="43.90026" lon="3.49254">
        <ele>468.03486572436</ele>
        <time>2016-05-21T11:44:00Z</time>
      </trkpt>
      <trkpt lat="43.90028" lon="3.49236">
        <ele>462.82242347119</ele>
        <time>2016-05-21T11:44:00Z</time>
      </trkpt>
      <trkpt lat="43.9003" lon="3.49222">
        <ele>458.30643395635</ele>
        <time>2016-05-21T11:44:15Z</time>
      </trkpt>
      <trkpt lat="43.90051" lon="3.4912">
        <ele>454.50875503128</ele>
        <time>2016-05-21T11:45:29Z</time>
      </trkpt>
      <trkpt lat="43.9006" lon="3.4906">
        <ele>450.79671420997</ele>
        <time>2016-05-21T11:46:32Z</time>
      </trkpt>
      <trkpt lat="43.90069" lon="3.49033">
        <ele>447.49588832803</ele>
        <time>2016-05-21T11:46:43Z</time>
      </trkpt>
      <trkpt lat="43.9009" lon="3.48986">
        <ele>444.21236737695</ele>
        <time>2016-05-21T11:47:23Z</time>
      </trkpt>
      <trkpt lat="43.90099" lon="3.48965">
        <ele>441.51989054085</ele>
        <time>2016-05-21T11:47:48Z</time>
      </trkpt>
      <trkpt lat="43.90101" lon="3.48961">
        <ele>441.51989054085</ele>
        <time>2016-05-21T11:47:48Z</time>
      </trkpt>
      <trkpt lat="43.90108" lon="3.48924">
        <ele>439.47093995892</ele>
        <time>2016-05-21T11:48:34Z</time>
      </trkpt>
      <trkpt lat="43.90104" lon="3.48917">
        <ele>439.47093995892</ele>
        <time>2016-05-21T11:48:34Z</time>
      </trkpt>
      <trkpt lat="43.90075" lon="3.48884">
        <ele>437.43408558652</ele>
        <time>2016-05-21T11:49:15Z</time>
      </trkpt>
      <trkpt lat="43.90072" lon="3.48878">
        <ele>437.43408558652</ele>
        <time>2016-05-21T11:49:15Z</time>
      </trkpt>
      <trkpt lat="43.90061" lon="3.48864">
        <ele>435.60343881814</ele>
        <time>2016-05-21T11:49:30Z</time>
      </trkpt>
      <trkpt lat="43.90053" lon="3.48831">
        <ele>434.12898506451</ele>
        <time>2016-05-21T11:50:00Z</time>
      </trkpt>
      <trkpt lat="43.89862" lon="3.48661">
        <ele>430.27906569068</ele>
        <time>2016-05-21T11:53:25Z</time>
      </trkpt>
      <trkpt lat="43.89853" lon="3.48666">
        <ele>427.00865829255</ele>
        <time>2016-05-21T11:53:25Z</time>
      </trkpt>
      <trkpt lat="43.89807" lon="3.4867">
        <ele>422.670198853</ele>
        <time>2016-05-21T11:54:31Z</time>
      </trkpt>
      <trkpt lat="43.89803" lon="3.48634">
        <ele>418.06136254891</ele>
        <time>2016-05-21T11:55:10Z</time>
      </trkpt>
      <trkpt lat="43.89803" lon="3.48627">
        <ele>418.06136254891</ele>
        <time>2016-05-21T11:55:10Z</time>
      </trkpt>
      <trkpt lat="43.89844" lon="3.48481">
        <ele>411.9753889842</ele>
        <time>2016-05-21T11:57:01Z</time>
      </trkpt>
      <trkpt lat="43.89861" lon="3.48444">
        <ele>405.95111827066</ele>
        <time>2016-05-21T11:57:27Z</time>
      </trkpt>
      <trkpt lat="43.89862" lon="3.48442">
        <ele>405.95111827066</ele>
        <time>2016-05-21T11:57:28Z</time>
      </trkpt>
      <trkpt lat="43.89869" lon="3.48426">
        <ele>400.39047445544</ele>
        <time>2016-05-21T11:57:44Z</time>
      </trkpt>
      <trkpt lat="43.8987" lon="3.4842">
        <ele>400.39047445544</ele>
        <time>2016-05-21T11:57:46Z</time>
      </trkpt>
      <trkpt lat="43.89898" lon="3.48383">
        <ele>394.58302992623</ele>
        <time>2016-05-21T11:58:28Z</time>
      </trkpt>
      <trkpt lat="43.89899" lon="3.48374">
        <ele>394.58302992623</ele>
        <time>2016-05-21T11:58:28Z</time>
      </trkpt>
      <trkpt lat="43.89898" lon="3.48369">
        <ele>389.16896155477</ele>
        <time>2016-05-21T11:58:40Z</time>
      </trkpt>
      <trkpt lat="43.89897" lon="3.4836">
        <ele>389.16896155477</ele>
        <time>2016-05-21T11:59:10Z</time>
      </trkpt>
      <trkpt lat="43.8992" lon="3.48339">
        <ele>384.19230196095</ele>
        <time>2016-05-21T11:59:56Z</time>
      </trkpt>
      <trkpt lat="43.89929" lon="3.48339">
        <ele>379.98100174913</ele>
        <time>2016-05-21T11:59:56Z</time>
      </trkpt>
      <trkpt lat="43.89942" lon="3.48328">
        <ele>376.50499116111</ele>
        <time>2016-05-21T12:00:18Z</time>
      </trkpt>
      <trkpt lat="43.89948" lon="3.48328">
        <ele>376.50499116111</ele>
        <time>2016-05-21T12:00:18Z</time>
      </trkpt>
      <trkpt lat="43.8995" lon="3.48327">
        <ele>376.50499116111</ele>
        <time>2016-05-21T12:00:21Z</time>
      </trkpt>
      <trkpt lat="43.89957" lon="3.48319">
        <ele>373.76311510605</ele>
        <time>2016-05-21T12:00:42Z</time>
      </trkpt>
      <trkpt lat="43.89964" lon="3.48297">
        <ele>371.60794407604</ele>
        <time>2016-05-21T12:00:50Z</time>
      </trkpt>
      <trkpt lat="43.89967" lon="3.48289">
        <ele>371.60794407604</ele>
        <time>2016-05-21T12:01:24Z</time>
      </trkpt>
      <trkpt lat="43.89969" lon="3.48285">
        <ele>370.20411189161</ele>
        <time>2016-05-21T12:01:28Z</time>
      </trkpt>
      <trkpt lat="43.89971" lon="3.4829">
        <ele>370.20411189161</ele>
        <time>2016-05-21T12:01:55Z</time>
      </trkpt>
      <trkpt lat="43.89984" lon="3.48289">
        <ele>369.19719045056</ele>
        <time>2016-05-21T12:02:16Z</time>
      </trkpt>
      <trkpt lat="43.89985" lon="3.48286">
        <ele>369.19719045056</ele>
        <time>2016-05-21T12:02:21Z</time>
      </trkpt>
      <trkpt lat="43.8998" lon="3.4828">
        <ele>369.19719045056</ele>
        <time>2016-05-21T12:02:36Z</time>
      </trkpt>
      <trkpt lat="43.89973" lon="3.48284">
        <ele>368.63276582155</ele>
        <time>2016-05-21T12:02:55Z</time>
      </trkpt>
      <trkpt lat="43.8997" lon="3.48289">
        <ele>368.63276582155</ele>
        <time>2016-05-21T12:02:56Z</time>
      </trkpt>
      <trkpt lat="43.89971" lon="3.4831">
        <ele>368.46536300752</ele>
        <time>2016-05-21T12:03:29Z</time>
      </trkpt>
      <trkpt lat="43.89957" lon="3.48322">
        <ele>367.69987759239</ele>
        <time>2016-05-21T12:04:14Z</time>
      </trkpt>
      <trkpt lat="43.89958" lon="3.48317">
        <ele>367.69987759239</ele>
        <time>2016-05-21T12:04:15Z</time>
      </trkpt>
      <trkpt lat="43.89966" lon="3.48316">
        <ele>367.11825839128</ele>
        <time>2016-05-21T12:04:36Z</time>
      </trkpt>
      <trkpt lat="43.8997" lon="3.48307">
        <ele>367.11825839128</ele>
        <time>2016-05-21T12:05:33Z</time>
      </trkpt>
      <trkpt lat="43.89971" lon="3.48306">
        <ele>367.3435956728</ele>
        <time>2016-05-21T12:06:08Z</time>
      </trkpt>
      <trkpt lat="43.89975" lon="3.48299">
        <ele>367.3435956728</ele>
        <time>2016-05-21T12:06:30Z</time>
      </trkpt>
      <trkpt lat="43.89972" lon="3.48306">
        <ele>367.94146210312</ele>
        <time>2016-05-21T12:06:41Z</time>
      </trkpt>
      <trkpt lat="43.89962" lon="3.48303">
        <ele>368.81146882936</ele>
        <time>2016-05-21T12:06:48Z</time>
      </trkpt>
      <trkpt lat="43.89963" lon="3.48301">
        <ele>368.81146882936</ele>
        <time>2016-05-21T12:07:30Z</time>
      </trkpt>
      <trkpt lat="43.89961" lon="3.48299">
        <ele>368.81146882936</ele>
        <time>2016-05-21T12:07:30Z</time>
      </trkpt>
      <trkpt lat="43.89954" lon="3.48314">
        <ele>369.70148943158</ele>
        <time>2016-05-21T12:07:56Z</time>
      </trkpt>
      <trkpt lat="43.89951" lon="3.48325">
        <ele>369.70148943158</ele>
        <time>2016-05-21T12:08:12Z</time>
      </trkpt>
      <trkpt lat="43.89958" lon="3.48331">
        <ele>370.53683053987</ele>
        <time>2016-05-21T12:08:12Z</time>
      </trkpt>
      <trkpt lat="43.89962" lon="3.48315">
        <ele>371.4794831661</ele>
        <time>2016-05-21T12:08:46Z</time>
      </trkpt>
      <trkpt lat="43.89968" lon="3.48297">
        <ele>372.96791427566</ele>
        <time>2016-05-21T12:09:33Z</time>
      </trkpt>
      <trkpt lat="43.89985" lon="3.48277">
        <ele>374.6285371301</ele>
        <time>2016-05-21T12:10:08Z</time>
      </trkpt>
      <trkpt lat="43.89986" lon="3.48273">
        <ele>374.6285371301</ele>
        <time>2016-05-21T12:10:36Z</time>
      </trkpt>
      <trkpt lat="43.89956" lon="3.48288">
        <ele>377.71550961096</ele>
        <time>2016-05-21T12:11:05Z</time>
      </trkpt>
      <trkpt lat="43.8994" lon="3.48292">
        <ele>380.14326689513</ele>
        <time>2016-05-21T12:11:13Z</time>
      </trkpt>
      <trkpt lat="43.89925" lon="3.48284">
        <ele>380.7461655202</ele>
        <time>2016-05-21T12:12:29Z</time>
      </trkpt>
      <trkpt lat="43.89921" lon="3.48287">
        <ele>380.7461655202</ele>
        <time>2016-05-21T12:12:33Z</time>
      </trkpt>
      <trkpt lat="43.89918" lon="3.48292">
        <ele>381.2321002691</ele>
        <time>2016-05-21T12:12:53Z</time>
      </trkpt>
      <trkpt lat="43.8991" lon="3.48293">
        <ele>381.2321002691</ele>
        <time>2016-05-21T12:13:25Z</time>
      </trkpt>
      <trkpt lat="43.89907" lon="3.48292">
        <ele>381.80015951684</ele>
        <time>2016-05-21T12:13:25Z</time>
      </trkpt>
      <trkpt lat="43.89873" lon="3.48304">
        <ele>382.17373511705</ele>
        <time>2016-05-21T12:14:14Z</time>
      </trkpt>
      <trkpt lat="43.89868" lon="3.48305">
        <ele>382.17373511705</ele>
        <time>2016-05-21T12:14:14Z</time>
      </trkpt>
      <trkpt lat="43.89858" lon="3.48308">
        <ele>382.50115070874</ele>
        <time>2016-05-21T12:14:25Z</time>
      </trkpt>
      <trkpt lat="43.89793" lon="3.4834">
        <ele>382.84831775526</ele>
        <time>2016-05-21T12:15:26Z</time>
      </trkpt>
      <trkpt lat="43.89785" lon="3.48347">
        <ele>383.21902815478</ele>
        <time>2016-05-21T12:15:30Z</time>
      </trkpt>
      <trkpt lat="43.89779" lon="3.48358">
        <ele>383.57392282695</ele>
        <time>2016-05-21T12:15:49Z</time>
      </trkpt>
      <trkpt lat="43.89765" lon="3.48385">
        <ele>383.92024375332</ele>
        <time>2016-05-21T12:15:56Z</time>
      </trkpt>
      <trkpt lat="43.89762" lon="3.48389">
        <ele>383.92024375332</ele>
        <time>2016-05-21T12:16:04Z</time>
      </trkpt>
      <trkpt lat="43.89759" lon="3.48396">
        <ele>384.25073026727</ele>
        <time>2016-05-21T12:16:04Z</time>
      </trkpt>
      <trkpt lat="43.89724" lon="3.48472">
        <ele>384.45822684663</ele>
        <time>2016-05-21T12:17:00Z</time>
      </trkpt>
      <trkpt lat="43.8971" lon="3.48489">
        <ele>384.58831684861</ele>
        <time>2016-05-21T12:17:09Z</time>
      </trkpt>
      <trkpt lat="43.89699" lon="3.48515">
        <ele>384.59737097805</ele>
        <time>2016-05-21T12:17:30Z</time>
      </trkpt>
      <trkpt lat="43.89698" lon="3.4852">
        <ele>384.59737097805</ele>
        <time>2016-05-21T12:17:33Z</time>
      </trkpt>
      <trkpt lat="43.89689" lon="3.48551">
        <ele>384.50333025134</ele>
        <time>2016-05-21T12:18:00Z</time>
      </trkpt>
      <trkpt lat="43.89687" lon="3.48559">
        <ele>384.50333025134</ele>
        <time>2016-05-21T12:18:13Z</time>
      </trkpt>
      <trkpt lat="43.89686" lon="3.48563">
        <ele>384.49640935266</ele>
        <time>2016-05-21T12:18:13Z</time>
      </trkpt>
      <trkpt lat="43.89678" lon="3.48579">
        <ele>384.46473061443</ele>
        <time>2016-05-21T12:18:36Z</time>
      </trkpt>
      <trkpt lat="43.89674" lon="3.48587">
        <ele>384.46473061443</ele>
        <time>2016-05-21T12:18:36Z</time>
      </trkpt>
      <trkpt lat="43.89674" lon="3.48588">
        <ele>384.46473061443</ele>
        <time>2016-05-21T12:18:37Z</time>
      </trkpt>
      <trkpt lat="43.89667" lon="3.48639">
        <ele>384.34828087512</ele>
        <time>2016-05-21T12:19:08Z</time>
      </trkpt>
      <trkpt lat="43.89659" lon="3.48691">
        <ele>384.04878705293</ele>
        <time>2016-05-21T12:19:46Z</time>
      </trkpt>
      <trkpt lat="43.8966" lon="3.48697">
        <ele>384.04878705293</ele>
        <time>2016-05-21T12:19:46Z</time>
      </trkpt>
      <trkpt lat="43.89655" lon="3.48718">
        <ele>383.66336776252</ele>
        <time>2016-05-21T12:20:00Z</time>
      </trkpt>
      <trkpt lat="43.89662" lon="3.48798">
        <ele>383.19607839353</ele>
        <time>2016-05-21T12:20:43Z</time>
      </trkpt>
      <trkpt lat="43.89675" lon="3.48855">
        <ele>382.60795437626</ele>
        <time>2016-05-21T12:21:23Z</time>
      </trkpt>
      <trkpt lat="43.89681" lon="3.48877">
        <ele>381.96437720348</ele>
        <time>2016-05-21T12:21:30Z</time>
      </trkpt>
      <trkpt lat="43.89682" lon="3.4888">
        <ele>381.96437720348</ele>
        <time>2016-05-21T12:21:38Z</time>
      </trkpt>
      <trkpt lat="43.89683" lon="3.48888">
        <ele>381.96437720348</ele>
        <time>2016-05-21T12:21:38Z</time>
      </trkpt>
      <trkpt lat="43.89638" lon="3.48887">
        <ele>380.62017484936</ele>
        <time>2016-05-21T12:22:43Z</time>
      </trkpt>
      <trkpt lat="43.89619" lon="3.48876">
        <ele>379.27678243629</ele>
        <time>2016-05-21T12:23:00Z</time>
      </trkpt>
      <trkpt lat="43.89586" lon="3.48856">
        <ele>377.80610521805</ele>
        <time>2016-05-21T12:23:28Z</time>
      </trkpt>
      <trkpt lat="43.89507" lon="3.48814">
        <ele>376.0611809544</ele>
        <time>2016-05-21T12:24:39Z</time>
      </trkpt>
      <trkpt lat="43.89468" lon="3.4882">
        <ele>374.16618480176</ele>
        <time>2016-05-21T12:25:11Z</time>
      </trkpt>
      <trkpt lat="43.89449" lon="3.48824">
        <ele>372.25114859808</ele>
        <time>2016-05-21T12:25:26Z</time>
      </trkpt>
      <trkpt lat="43.89447" lon="3.48824">
        <ele>372.25114859808</ele>
        <time>2016-05-21T12:25:28Z</time>
      </trkpt>
      <trkpt lat="43.89413" lon="3.48851">
        <ele>369.96115386698</ele>
        <time>2016-05-21T12:26:12Z</time>
      </trkpt>
      <trkpt lat="43.89412" lon="3.48854">
        <ele>369.96115386698</ele>
        <time>2016-05-21T12:26:16Z</time>
      </trkpt>
      <trkpt lat="43.89402" lon="3.48876">
        <ele>367.71790330947</ele>
        <time>2016-05-21T12:26:33Z</time>
      </trkpt>
      <trkpt lat="43.89389" lon="3.48903">
        <ele>365.46531463302</ele>
        <time>2016-05-21T12:26:47Z</time>
      </trkpt>
      <trkpt lat="43.89382" lon="3.48965">
        <ele>363.079452404</ele>
        <time>2016-05-21T12:27:23Z</time>
      </trkpt>
      <trkpt lat="43.89379" lon="3.48983">
        <ele>360.79177332576</ele>
        <time>2016-05-21T12:27:40Z</time>
      </trkpt>
      <trkpt lat="43.89371" lon="3.49043">
        <ele>358.47059929896</ele>
        <time>2016-05-21T12:28:07Z</time>
      </trkpt>
      <trkpt lat="43.8937" lon="3.49046">
        <ele>358.47059929896</ele>
        <time>2016-05-21T12:28:08Z</time>
      </trkpt>
      <trkpt lat="43.89377" lon="3.49075">
        <ele>356.21019347532</ele>
        <time>2016-05-21T12:28:29Z</time>
      </trkpt>
      <trkpt lat="43.8938" lon="3.49093">
        <ele>354.09770961316</ele>
        <time>2016-05-21T12:28:42Z</time>
      </trkpt>
      <trkpt lat="43.89385" lon="3.49158">
        <ele>352.08375261972</ele>
        <time>2016-05-21T12:29:28Z</time>
      </trkpt>
      <trkpt lat="43.89391" lon="3.49235">
        <ele>350.25194249452</ele>
        <time>2016-05-21T12:30:12Z</time>
      </trkpt>
      <trkpt lat="43.89394" lon="3.49259">
        <ele>348.59272652917</ele>
        <time>2016-05-21T12:30:28Z</time>
      </trkpt>
      <trkpt lat="43.89388" lon="3.49304">
        <ele>347.02465473149</ele>
        <time>2016-05-21T12:30:56Z</time>
      </trkpt>
      <trkpt lat="43.8938" lon="3.49342">
        <ele>345.63046676625</ele>
        <time>2016-05-21T12:31:28Z</time>
      </trkpt>
      <trkpt lat="43.89324" lon="3.4936">
        <ele>344.52950287883</ele>
        <time>2016-05-21T12:32:28Z</time>
      </trkpt>
      <trkpt lat="43.89322" lon="3.49351">
        <ele>344.52950287883</ele>
        <time>2016-05-21T12:32:38Z</time>
      </trkpt>
      <trkpt lat="43.89317" lon="3.49338">
        <ele>343.55762893072</ele>
        <time>2016-05-21T12:32:48Z</time>
      </trkpt>
      <trkpt lat="43.89309" lon="3.49306">
        <ele>342.692039844</ele>
        <time>2016-05-21T12:33:08Z</time>
      </trkpt>
      <trkpt lat="43.89309" lon="3.49298">
        <ele>342.692039844</ele>
        <time>2016-05-21T12:33:08Z</time>
      </trkpt>
      <trkpt lat="43.89309" lon="3.49264">
        <ele>341.9977084604</ele>
        <time>2016-05-21T12:33:24Z</time>
      </trkpt>
      <trkpt lat="43.89305" lon="3.49257">
        <ele>341.9977084604</ele>
        <time>2016-05-21T12:33:28Z</time>
      </trkpt>
      <trkpt lat="43.89302" lon="3.49236">
        <ele>341.39017713751</ele>
        <time>2016-05-21T12:33:49Z</time>
      </trkpt>
      <trkpt lat="43.89298" lon="3.49227">
        <ele>341.39017713751</ele>
        <time>2016-05-21T12:33:49Z</time>
      </trkpt>
      <trkpt lat="43.89279" lon="3.49185">
        <ele>341.0070586047</ele>
        <time>2016-05-21T12:34:23Z</time>
      </trkpt>
      <trkpt lat="43.89276" lon="3.49178">
        <ele>341.0070586047</ele>
        <time>2016-05-21T12:34:23Z</time>
      </trkpt>
      <trkpt lat="43.89241" lon="3.49149">
        <ele>340.70135827815</ele>
        <time>2016-05-21T12:35:05Z</time>
      </trkpt>
      <trkpt lat="43.89204" lon="3.49132">
        <ele>340.42308214096</ele>
        <time>2016-05-21T12:35:42Z</time>
      </trkpt>
      <trkpt lat="43.89177" lon="3.49126">
        <ele>340.05373375048</ele>
        <time>2016-05-21T12:36:00Z</time>
      </trkpt>
      <trkpt lat="43.89159" lon="3.49119">
        <ele>339.67108697979</ele>
        <time>2016-05-21T12:36:13Z</time>
      </trkpt>
      <trkpt lat="43.89139" lon="3.49127">
        <ele>339.2751535478</ele>
        <time>2016-05-21T12:36:38Z</time>
      </trkpt>
      <trkpt lat="43.89138" lon="3.49128">
        <ele>339.2751535478</ele>
        <time>2016-05-21T12:36:43Z</time>
      </trkpt>
      <trkpt lat="43.89121" lon="3.49137">
        <ele>338.93801287807</ele>
        <time>2016-05-21T12:37:00Z</time>
      </trkpt>
      <trkpt lat="43.89106" lon="3.49142">
        <ele>338.53891954824</ele>
        <time>2016-05-21T12:37:24Z</time>
      </trkpt>
      <trkpt lat="43.89098" lon="3.49161">
        <ele>338.18232440637</ele>
        <time>2016-05-21T12:37:50Z</time>
      </trkpt>
      <trkpt lat="43.89093" lon="3.4917">
        <ele>338.18232440637</ele>
        <time>2016-05-21T12:37:54Z</time>
      </trkpt>
      <trkpt lat="43.89086" lon="3.49191">
        <ele>337.79194145706</ele>
        <time>2016-05-21T12:38:16Z</time>
      </trkpt>
      <trkpt lat="43.89089" lon="3.4921">
        <ele>337.47011064162</ele>
        <time>2016-05-21T12:38:16Z</time>
      </trkpt>
      <trkpt lat="43.89091" lon="3.49227">
        <ele>337.21058102362</ele>
        <time>2016-05-21T12:38:23Z</time>
      </trkpt>
      <trkpt lat="43.8909" lon="3.49288">
        <ele>336.99297630175</ele>
        <time>2016-05-21T12:38:53Z</time>
      </trkpt>
      <trkpt lat="43.89102" lon="3.49346">
        <ele>336.75507125961</ele>
        <time>2016-05-21T12:39:36Z</time>
      </trkpt>
      <trkpt lat="43.89093" lon="3.49395">
        <ele>336.72750064032</ele>
        <time>2016-05-21T12:40:08Z</time>
      </trkpt>
      <trkpt lat="43.8905" lon="3.49477">
        <ele>336.99368084421</ele>
        <time>2016-05-21T12:41:00Z</time>
      </trkpt>
      <trkpt lat="43.89045" lon="3.49482">
        <ele>336.99368084421</ele>
        <time>2016-05-21T12:41:07Z</time>
      </trkpt>
      <trkpt lat="43.89045" lon="3.49483">
        <ele>336.99368084421</ele>
        <time>2016-05-21T12:41:13Z</time>
      </trkpt>
      <trkpt lat="43.89041" lon="3.49487">
        <ele>337.2554067848</ele>
        <time>2016-05-21T12:41:13Z</time>
      </trkpt>
      <trkpt lat="43.89033" lon="3.49493">
        <ele>337.48140613478</ele>
        <time>2016-05-21T12:41:25Z</time>
      </trkpt>
      <trkpt lat="43.89023" lon="3.49498">
        <ele>337.7293019235</ele>
        <time>2016-05-21T12:41:48Z</time>
      </trkpt>
      <trkpt lat="43.89012" lon="3.49503">
        <ele>337.98040418482</ele>
        <time>2016-05-21T12:41:48Z</time>
      </trkpt>
      <trkpt lat="43.89006" lon="3.49505">
        <ele>337.98040418482</ele>
        <time>2016-05-21T12:42:00Z</time>
      </trkpt>
      <trkpt lat="43.89" lon="3.49505">
        <ele>338.24625141811</ele>
        <time>2016-05-21T12:42:00Z</time>
      </trkpt>
      <trkpt lat="43.88968" lon="3.49512">
        <ele>338.42225105102</ele>
        <time>2016-05-21T12:42:30Z</time>
      </trkpt>
      <trkpt lat="43.88949" lon="3.49525">
        <ele>338.61355252079</ele>
        <time>2016-05-21T12:42:54Z</time>
      </trkpt>
      <trkpt lat="43.88914" lon="3.49555">
        <ele>338.6293698305</ele>
        <time>2016-05-21T12:43:32Z</time>
      </trkpt>
      <trkpt lat="43.88905" lon="3.49569">
        <ele>338.62493662527</ele>
        <time>2016-05-21T12:43:43Z</time>
      </trkpt>
      <trkpt lat="43.88897" lon="3.49596">
        <ele>338.61449795469</ele>
        <time>2016-05-21T12:44:09Z</time>
      </trkpt>
      <trkpt lat="43.88895" lon="3.49628">
        <ele>338.46721672978</ele>
        <time>2016-05-21T12:44:35Z</time>
      </trkpt>
      <trkpt lat="43.88894" lon="3.49637">
        <ele>338.46721672978</ele>
        <time>2016-05-21T12:45:45Z</time>
      </trkpt>
      <trkpt lat="43.88895" lon="3.4966">
        <ele>337.78849726738</ele>
        <time>2016-05-21T12:46:05Z</time>
      </trkpt>
      <trkpt lat="43.88911" lon="3.49704">
        <ele>337.17982255695</ele>
        <time>2016-05-21T12:46:39Z</time>
      </trkpt>
      <trkpt lat="43.8892" lon="3.49709">
        <ele>336.66513543708</ele>
        <time>2016-05-21T12:46:47Z</time>
      </trkpt>
      <trkpt lat="43.88946" lon="3.49714">
        <ele>336.39610532471</ele>
        <time>2016-05-21T12:47:16Z</time>
      </trkpt>
      <trkpt lat="43.88967" lon="3.49726">
        <ele>336.29644974</ele>
        <time>2016-05-21T12:47:34Z</time>
      </trkpt>
      <trkpt lat="43.89003" lon="3.49731">
        <ele>336.58328148528</ele>
        <time>2016-05-21T12:48:19Z</time>
      </trkpt>
      <trkpt lat="43.89012" lon="3.49731">
        <ele>336.58328148528</ele>
        <time>2016-05-21T12:48:19Z</time>
      </trkpt>
      <trkpt lat="43.89023" lon="3.49734">
        <ele>337.0676243378</ele>
        <time>2016-05-21T12:48:36Z</time>
      </trkpt>
      <trkpt lat="43.89075" lon="3.49746">
        <ele>338.16473384494</ele>
        <time>2016-05-21T12:49:09Z</time>
      </trkpt>
      <trkpt lat="43.89078" lon="3.49744">
        <ele>338.16473384494</ele>
        <time>2016-05-21T12:49:09Z</time>
      </trkpt>
      <trkpt lat="43.89095" lon="3.49748">
        <ele>339.29214912785</ele>
        <time>2016-05-21T12:49:23Z</time>
      </trkpt>
      <trkpt lat="43.89109" lon="3.49747">
        <ele>340.42897119537</ele>
        <time>2016-05-21T12:49:38Z</time>
      </trkpt>
      <trkpt lat="43.89153" lon="3.49782">
        <ele>341.46940955386</ele>
        <time>2016-05-21T12:50:19Z</time>
      </trkpt>
      <trkpt lat="43.89161" lon="3.4979">
        <ele>342.43107803054</ele>
        <time>2016-05-21T12:50:20Z</time>
      </trkpt>
      <trkpt lat="43.89167" lon="3.49797">
        <ele>342.43107803054</ele>
        <time>2016-05-21T12:50:28Z</time>
      </trkpt>
      <trkpt lat="43.89172" lon="3.49825">
        <ele>343.34500836623</ele>
        <time>2016-05-21T12:50:47Z</time>
      </trkpt>
      <trkpt lat="43.89173" lon="3.4983">
        <ele>343.34500836623</ele>
        <time>2016-05-21T12:50:47Z</time>
      </trkpt>
      <trkpt lat="43.89174" lon="3.49852">
        <ele>344.3554605157</ele>
        <time>2016-05-21T12:51:09Z</time>
      </trkpt>
      <trkpt lat="43.89175" lon="3.49856">
        <ele>344.3554605157</ele>
        <time>2016-05-21T12:51:09Z</time>
      </trkpt>
      <trkpt lat="43.89175" lon="3.49866">
        <ele>345.30769294975</ele>
        <time>2016-05-21T12:51:26Z</time>
      </trkpt>
      <trkpt lat="43.89173" lon="3.49864">
        <ele>345.30769294975</ele>
        <time>2016-05-21T12:51:34Z</time>
      </trkpt>
      <trkpt lat="43.89166" lon="3.49862">
        <ele>346.13064261664</ele>
        <time>2016-05-21T12:52:03Z</time>
      </trkpt>
      <trkpt lat="43.89151" lon="3.49882">
        <ele>346.7733350707</ele>
        <time>2016-05-21T12:52:31Z</time>
      </trkpt>
      <trkpt lat="43.89145" lon="3.49921">
        <ele>347.83764316626</ele>
        <time>2016-05-21T12:53:00Z</time>
      </trkpt>
      <trkpt lat="43.89141" lon="3.49946">
        <ele>349.04429692111</ele>
        <time>2016-05-21T12:53:21Z</time>
      </trkpt>
      <trkpt lat="43.89141" lon="3.49949">
        <ele>349.04429692111</ele>
        <time>2016-05-21T12:53:24Z</time>
      </trkpt>
      <trkpt lat="43.89142" lon="3.49961">
        <ele>350.23511996694</ele>
        <time>2016-05-21T12:53:39Z</time>
      </trkpt>
      <trkpt lat="43.89137" lon="3.49976">
        <ele>351.45104675004</ele>
        <time>2016-05-21T12:53:39Z</time>
      </trkpt>
      <trkpt lat="43.89127" lon="3.49995">
        <ele>352.58592781714</ele>
        <time>2016-05-21T12:53:51Z</time>
      </trkpt>
      <trkpt lat="43.89126" lon="3.49999">
        <ele>352.58592781714</ele>
        <time>2016-05-21T12:53:59Z</time>
      </trkpt>
      <trkpt lat="43.89121" lon="3.50007">
        <ele>353.65703442644</ele>
        <time>2016-05-21T12:53:59Z</time>
      </trkpt>
      <trkpt lat="43.89121" lon="3.50036">
        <ele>354.89682305682</ele>
        <time>2016-05-21T12:54:24Z</time>
      </trkpt>
      <trkpt lat="43.89121" lon="3.5004">
        <ele>354.89682305682</ele>
        <time>2016-05-21T12:54:24Z</time>
      </trkpt>
      <trkpt lat="43.89116" lon="3.50076">
        <ele>355.5979976615</ele>
        <time>2016-05-21T12:55:00Z</time>
      </trkpt>
      <trkpt lat="43.891" lon="3.50122">
        <ele>355.74092662</ele>
        <time>2016-05-21T12:55:33Z</time>
      </trkpt>
      <trkpt lat="43.89095" lon="3.50128">
        <ele>355.74092662</ele>
        <time>2016-05-21T12:55:33Z</time>
      </trkpt>
      <trkpt lat="43.89081" lon="3.50152">
        <ele>355.59731140014</ele>
        <time>2016-05-21T12:55:50Z</time>
      </trkpt>
      <trkpt lat="43.8908" lon="3.50156">
        <ele>355.59731140014</ele>
        <time>2016-05-21T12:55:58Z</time>
      </trkpt>
      <trkpt lat="43.89083" lon="3.50166">
        <ele>355.39097202357</ele>
        <time>2016-05-21T12:55:59Z</time>
      </trkpt>
      <trkpt lat="43.89076" lon="3.50212">
        <ele>354.7242821667</ele>
        <time>2016-05-21T12:56:33Z</time>
      </trkpt>
      <trkpt lat="43.89083" lon="3.50222">
        <ele>353.99398051984</ele>
        <time>2016-05-21T12:56:58Z</time>
      </trkpt>
      <trkpt lat="43.89082" lon="3.50226">
        <ele>353.99398051984</ele>
        <time>2016-05-21T12:56:58Z</time>
      </trkpt>
      <trkpt lat="43.89078" lon="3.50236">
        <ele>353.33732493888</ele>
        <time>2016-05-21T12:57:15Z</time>
      </trkpt>
      <trkpt lat="43.89078" lon="3.50237">
        <ele>353.33732493888</ele>
        <time>2016-05-21T12:57:15Z</time>
      </trkpt>
      <trkpt lat="43.89077" lon="3.50241">
        <ele>353.33732493888</ele>
        <time>2016-05-21T12:57:18Z</time>
      </trkpt>
      <trkpt lat="43.89074" lon="3.5025">
        <ele>352.80927878174</ele>
        <time>2016-05-21T12:57:32Z</time>
      </trkpt>
      <trkpt lat="43.89069" lon="3.50262">
        <ele>352.28751234346</ele>
        <time>2016-05-21T12:57:37Z</time>
      </trkpt>
      <trkpt lat="43.89065" lon="3.50274">
        <ele>351.71633691454</ele>
        <time>2016-05-21T12:57:49Z</time>
      </trkpt>
      <trkpt lat="43.89065" lon="3.50287">
        <ele>351.07313344635</ele>
        <time>2016-05-21T12:58:05Z</time>
      </trkpt>
      <trkpt lat="43.89066" lon="3.50294">
        <ele>351.07313344635</ele>
        <time>2016-05-21T12:58:05Z</time>
      </trkpt>
      <trkpt lat="43.89066" lon="3.50309">
        <ele>350.39479967527</ele>
        <time>2016-05-21T12:58:13Z</time>
      </trkpt>
      <trkpt lat="43.89067" lon="3.50329">
        <ele>349.60033205448</ele>
        <time>2016-05-21T12:58:29Z</time>
      </trkpt>
      <trkpt lat="43.89064" lon="3.50333">
        <ele>349.60033205448</ele>
        <time>2016-05-21T12:58:38Z</time>
      </trkpt>
      <trkpt lat="43.89105" lon="3.50354">
        <ele>349.47966223008</ele>
        <time>2016-05-21T12:59:03Z</time>
      </trkpt>
      <trkpt lat="43.89107" lon="3.50354">
        <ele>349.47966223008</ele>
        <time>2016-05-21T12:59:03Z</time>
      </trkpt>
      <trkpt lat="43.89117" lon="3.50355">
        <ele>349.48019991864</ele>
        <time>2016-05-21T12:59:22Z</time>
      </trkpt>
      <trkpt lat="43.89126" lon="3.50361">
        <ele>349.46427781056</ele>
        <time>2016-05-21T12:59:22Z</time>
      </trkpt>
      <trkpt lat="43.89143" lon="3.50373">
        <ele>349.50612170966</ele>
        <time>2016-05-21T12:59:37Z</time>
      </trkpt>
      <trkpt lat="43.89155" lon="3.50386">
        <ele>349.71755358633</ele>
        <time>2016-05-21T12:59:54Z</time>
      </trkpt>
      <trkpt lat="43.89159" lon="3.50389">
        <ele>349.71755358633</ele>
        <time>2016-05-21T12:59:54Z</time>
      </trkpt>
      <trkpt lat="43.89176" lon="3.504">
        <ele>350.07198265975</ele>
        <time>2016-05-21T13:00:09Z</time>
      </trkpt>
      <trkpt lat="43.89177" lon="3.504">
        <ele>350.07198265975</ele>
        <time>2016-05-21T13:00:09Z</time>
      </trkpt>
      <trkpt lat="43.89199" lon="3.50414">
        <ele>350.52993749971</ele>
        <time>2016-05-21T13:00:37Z</time>
      </trkpt>
      <trkpt lat="43.89213" lon="3.50415">
        <ele>351.08335818069</ele>
        <time>2016-05-21T13:00:54Z</time>
      </trkpt>
      <trkpt lat="43.89222" lon="3.50414">
        <ele>351.62361399114</ele>
        <time>2016-05-21T13:00:56Z</time>
      </trkpt>
      <trkpt lat="43.89232" lon="3.50413">
        <ele>352.10772128547</ele>
        <time>2016-05-21T13:01:08Z</time>
      </trkpt>
      <trkpt lat="43.89279" lon="3.50405">
        <ele>352.98597886437</ele>
        <time>2016-05-21T13:01:50Z</time>
      </trkpt>
      <trkpt lat="43.89315" lon="3.50361">
        <ele>354.41509535037</ele>
        <time>2016-05-21T13:02:37Z</time>
      </trkpt>
      <trkpt lat="43.89348" lon="3.50312">
        <ele>355.77493329761</ele>
        <time>2016-05-21T13:03:15Z</time>
      </trkpt>
      <trkpt lat="43.89368" lon="3.50308">
        <ele>356.77933358833</ele>
        <time>2016-05-21T13:03:24Z</time>
      </trkpt>
      <trkpt lat="43.89394" lon="3.50291">
        <ele>357.30827938154</ele>
        <time>2016-05-21T13:03:47Z</time>
      </trkpt>
      <trkpt lat="43.89401" lon="3.503">
        <ele>357.38162110918</ele>
        <time>2016-05-21T13:03:55Z</time>
      </trkpt>
      <trkpt lat="43.89427" lon="3.50304">
        <ele>356.74523509899</ele>
        <time>2016-05-21T13:04:18Z</time>
      </trkpt>
      <trkpt lat="43.8948" lon="3.50343">
        <ele>354.8198013848</ele>
        <time>2016-05-21T13:05:08Z</time>
      </trkpt>
      <trkpt lat="43.895" lon="3.50375">
        <ele>352.80150843578</ele>
        <time>2016-05-21T13:05:36Z</time>
      </trkpt>
      <trkpt lat="43.89505" lon="3.50385">
        <ele>350.60279858958</ele>
        <time>2016-05-21T13:05:44Z</time>
      </trkpt>
      <trkpt lat="43.89511" lon="3.50392">
        <ele>350.60279858958</ele>
        <time>2016-05-21T13:06:00Z</time>
      </trkpt>
      <trkpt lat="43.89519" lon="3.50423">
        <ele>348.54653394179</ele>
        <time>2016-05-21T13:06:15Z</time>
      </trkpt>
      <trkpt lat="43.89521" lon="3.50459">
        <ele>348.51663884896</ele>
        <time>2016-05-21T13:06:16Z</time>
      </trkpt>
      <trkpt lat="43.89529" lon="3.50493">
        <ele>349.37068512972</ele>
        <time>2016-05-21T13:06:43Z</time>
      </trkpt>
      <trkpt lat="43.89535" lon="3.50506">
        <ele>350.35026539125</ele>
        <time>2016-05-21T13:06:43Z</time>
      </trkpt>
      <trkpt lat="43.89552" lon="3.50517">
        <ele>352.04928308986</ele>
        <time>2016-05-21T13:07:13Z</time>
      </trkpt>
      <trkpt lat="43.89552" lon="3.50517">
        <ele>352.04928308986</ele>
        <time>2016-05-21T13:07:18Z</time>
      </trkpt>
      <trkpt lat="43.89551" lon="3.50514">
        <ele>352.04928308986</ele>
        <time>2016-05-21T13:07:23Z</time>
      </trkpt>
      <trkpt lat="43.8954" lon="3.50484">
        <ele>353.64690056633</ele>
        <time>2016-05-21T13:07:51Z</time>
      </trkpt>
      <trkpt lat="43.89539" lon="3.50476">
        <ele>353.64690056633</ele>
        <time>2016-05-21T13:07:55Z</time>
      </trkpt>
      <trkpt lat="43.89522" lon="3.50382">
        <ele>354.62782459045</ele>
        <time>2016-05-21T13:09:00Z</time>
      </trkpt>
      <trkpt lat="43.89512" lon="3.50336">
        <ele>354.84778364342</ele>
        <time>2016-05-21T13:09:13Z</time>
      </trkpt>
      <trkpt lat="43.89445" lon="3.50286">
        <ele>353.97347229172</ele>
        <time>2016-05-21T13:10:09Z</time>
      </trkpt>
      <trkpt lat="43.89443" lon="3.50284">
        <ele>353.97347229172</ele>
        <time>2016-05-21T13:10:09Z</time>
      </trkpt>
      <trkpt lat="43.89368" lon="3.50249">
        <ele>351.94411632309</ele>
        <time>2016-05-21T13:11:15Z</time>
      </trkpt>
      <trkpt lat="43.89362" lon="3.50246">
        <ele>351.94411632309</ele>
        <time>2016-05-21T13:11:15Z</time>
      </trkpt>
      <trkpt lat="43.89355" lon="3.5024">
        <ele>349.64334950236</ele>
        <time>2016-05-21T13:11:27Z</time>
      </trkpt>
      <trkpt lat="43.89359" lon="3.50232">
        <ele>349.64334950236</ele>
        <time>2016-05-21T13:11:28Z</time>
      </trkpt>
      <trkpt lat="43.89359" lon="3.50229">
        <ele>349.64334950236</ele>
        <time>2016-05-21T13:11:33Z</time>
      </trkpt>
      <trkpt lat="43.89358" lon="3.50229">
        <ele>347.48711276524</ele>
        <time>2016-05-21T13:11:38Z</time>
      </trkpt>
      <trkpt lat="43.89386" lon="3.50211">
        <ele>345.50006192137</ele>
        <time>2016-05-21T13:12:08Z</time>
      </trkpt>
      <trkpt lat="43.89452" lon="3.50261">
        <ele>343.87743848323</ele>
        <time>2016-05-21T13:13:14Z</time>
      </trkpt>
      <trkpt lat="43.89515" lon="3.50301">
        <ele>342.40994472889</ele>
        <time>2016-05-21T13:14:09Z</time>
      </trkpt>
      <trkpt lat="43.89577" lon="3.50322">
        <ele>341.16253881695</ele>
        <time>2016-05-21T13:14:50Z</time>
      </trkpt>
      <trkpt lat="43.89584" lon="3.50325">
        <ele>341.16253881695</ele>
        <time>2016-05-21T13:14:53Z</time>
      </trkpt>
      <trkpt lat="43.89583" lon="3.50385">
        <ele>340.58380015095</ele>
        <time>2016-05-21T13:15:32Z</time>
      </trkpt>
      <trkpt lat="43.89584" lon="3.5039">
        <ele>340.58380015095</ele>
        <time>2016-05-21T13:15:37Z</time>
      </trkpt>
      <trkpt lat="43.89605" lon="3.50391">
        <ele>340.41006554389</ele>
        <time>2016-05-21T13:16:04Z</time>
      </trkpt>
      <trkpt lat="43.89638" lon="3.50361">
        <ele>340.4102245009</ele>
        <time>2016-05-21T13:16:43Z</time>
      </trkpt>
      <trkpt lat="43.89657" lon="3.50331">
        <ele>340.54250275841</ele>
        <time>2016-05-21T13:17:05Z</time>
      </trkpt>
      <trkpt lat="43.89665" lon="3.50326">
        <ele>340.623632704</ele>
        <time>2016-05-21T13:17:11Z</time>
      </trkpt>
      <trkpt lat="43.89674" lon="3.50317">
        <ele>340.67122432595</ele>
        <time>2016-05-21T13:17:28Z</time>
      </trkpt>
      <trkpt lat="43.89745" lon="3.50417">
        <ele>340.78808892044</ele>
        <time>2016-05-21T13:19:17Z</time>
      </trkpt>
      <trkpt lat="43.89744" lon="3.50419">
        <ele>340.78808892044</ele>
        <time>2016-05-21T13:19:20Z</time>
      </trkpt>
      <trkpt lat="43.89736" lon="3.50455">
        <ele>341.01158787809</ele>
        <time>2016-05-21T13:19:38Z</time>
      </trkpt>
      <trkpt lat="43.89707" lon="3.50512">
        <ele>341.43363204858</ele>
        <time>2016-05-21T13:20:08Z</time>
      </trkpt>
      <trkpt lat="43.89617" lon="3.50667">
        <ele>341.96584656163</ele>
        <time>2016-05-21T13:22:12Z</time>
      </trkpt>
      <trkpt lat="43.89587" lon="3.50718">
        <ele>342.55482626339</ele>
        <time>2016-05-21T13:22:42Z</time>
      </trkpt>
      <trkpt lat="43.89587" lon="3.50719">
        <ele>342.55482626339</ele>
        <time>2016-05-21T13:22:50Z</time>
      </trkpt>
      <trkpt lat="43.89589" lon="3.50728">
        <ele>342.55482626339</ele>
        <time>2016-05-21T13:22:50Z</time>
      </trkpt>
      <trkpt lat="43.89589" lon="3.5073">
        <ele>342.55482626339</ele>
        <time>2016-05-21T13:22:58Z</time>
      </trkpt>
      <trkpt lat="43.89563" lon="3.50771">
        <ele>342.96355814322</ele>
        <time>2016-05-21T13:24:06Z</time>
      </trkpt>
      <trkpt lat="43.89557" lon="3.50779">
        <ele>342.96355814322</ele>
        <time>2016-05-21T13:24:06Z</time>
      </trkpt>
      <trkpt lat="43.89537" lon="3.50836">
        <ele>343.54937147548</ele>
        <time>2016-05-21T13:24:32Z</time>
      </trkpt>
      <trkpt lat="43.89538" lon="3.50841">
        <ele>343.54937147548</ele>
        <time>2016-05-21T13:24:32Z</time>
      </trkpt>
      <trkpt lat="43.8955" lon="3.50856">
        <ele>343.92228239448</ele>
        <time>2016-05-21T13:24:38Z</time>
      </trkpt>
      <trkpt lat="43.8954" lon="3.50913">
        <ele>344.15388096484</ele>
        <time>2016-05-21T13:25:08Z</time>
      </trkpt>
      <trkpt lat="43.89538" lon="3.50921">
        <ele>344.15388096484</ele>
        <time>2016-05-21T13:25:13Z</time>
      </trkpt>
      <trkpt lat="43.89538" lon="3.50938">
        <ele>344.4405955778</ele>
        <time>2016-05-21T13:25:35Z</time>
      </trkpt>
      <trkpt lat="43.89532" lon="3.50951">
        <ele>344.70487596768</ele>
        <time>2016-05-21T13:25:35Z</time>
      </trkpt>
      <trkpt lat="43.89512" lon="3.51013">
        <ele>344.62995148976</ele>
        <time>2016-05-21T13:26:19Z</time>
      </trkpt>
      <trkpt lat="43.89513" lon="3.51016">
        <ele>344.62995148976</ele>
        <time>2016-05-21T13:26:19Z</time>
      </trkpt>
      <trkpt lat="43.89522" lon="3.51039">
        <ele>344.60060672619</ele>
        <time>2016-05-21T13:26:47Z</time>
      </trkpt>
      <trkpt lat="43.89517" lon="3.51072">
        <ele>344.62737871572</ele>
        <time>2016-05-21T13:27:03Z</time>
      </trkpt>
      <trkpt lat="43.89489" lon="3.51112">
        <ele>344.56136482166</ele>
        <time>2016-05-21T13:27:30Z</time>
      </trkpt>
      <trkpt lat="43.89479" lon="3.5114">
        <ele>344.45221993318</ele>
        <time>2016-05-21T13:28:00Z</time>
      </trkpt>
      <trkpt lat="43.89482" lon="3.51149">
        <ele>344.45221993318</ele>
        <time>2016-05-21T13:28:28Z</time>
      </trkpt>
      <trkpt lat="43.89491" lon="3.51145">
        <ele>343.91375268307</ele>
        <time>2016-05-21T13:29:05Z</time>
      </trkpt>
      <trkpt lat="43.89495" lon="3.51139">
        <ele>343.91375268307</ele>
        <time>2016-05-21T13:29:07Z</time>
      </trkpt>
      <trkpt lat="43.89496" lon="3.51138">
        <ele>343.91375268307</ele>
        <time>2016-05-21T13:29:08Z</time>
      </trkpt>
      <trkpt lat="43.89519" lon="3.51084">
        <ele>343.02169089919</ele>
        <time>2016-05-21T13:29:45Z</time>
      </trkpt>
      <trkpt lat="43.89532" lon="3.5103">
        <ele>342.10660001679</ele>
        <time>2016-05-21T13:30:13Z</time>
      </trkpt>
      <trkpt lat="43.89546" lon="3.51055">
        <ele>341.10014135947</ele>
        <time>2016-05-21T13:31:26Z</time>
      </trkpt>
      <trkpt lat="43.89548" lon="3.51065">
        <ele>341.10014135947</ele>
        <time>2016-05-21T13:31:26Z</time>
      </trkpt>
      <trkpt lat="43.89546" lon="3.51093">
        <ele>340.2130614516</ele>
        <time>2016-05-21T13:31:50Z</time>
      </trkpt>
      <trkpt lat="43.89545" lon="3.51105">
        <ele>340.2130614516</ele>
        <time>2016-05-21T13:31:56Z</time>
      </trkpt>
      <trkpt lat="43.89543" lon="3.51109">
        <ele>339.42411557663</ele>
        <time>2016-05-21T13:32:00Z</time>
      </trkpt>
      <trkpt lat="43.89523" lon="3.51139">
        <ele>338.78538670885</ele>
        <time>2016-05-21T13:32:32Z</time>
      </trkpt>
      <trkpt lat="43.89513" lon="3.51145">
        <ele>338.18617099293</ele>
        <time>2016-05-21T13:32:34Z</time>
      </trkpt>
      <trkpt lat="43.8951" lon="3.51161">
        <ele>337.35083213376</ele>
        <time>2016-05-21T13:33:07Z</time>
      </trkpt>
      <trkpt lat="43.8952" lon="3.51151">
        <ele>335.52023029761</ele>
        <time>2016-05-21T13:35:58Z</time>
      </trkpt>
      <trkpt lat="43.8951" lon="3.51158">
        <ele>333.85278740772</ele>
        <time>2016-05-21T13:36:00Z</time>
      </trkpt>
      <trkpt lat="43.89508" lon="3.51159">
        <ele>333.85278740772</ele>
        <time>2016-05-21T13:36:23Z</time>
      </trkpt>
      <trkpt lat="43.895" lon="3.51163">
        <ele>332.42696671109</ele>
        <time>2016-05-21T13:37:57Z</time>
      </trkpt>
      <trkpt lat="43.895" lon="3.51163">
        <ele>332.42696671109</ele>
        <time>2016-05-21T13:38:00Z</time>
      </trkpt>
      <trkpt lat="43.89509" lon="3.51159">
        <ele>332.42696671109</ele>
        <time>2016-05-21T13:39:38Z</time>
      </trkpt>
      <trkpt lat="43.89515" lon="3.51156">
        <ele>331.68943538892</ele>
        <time>2016-05-21T13:46:28Z</time>
      </trkpt>
      <trkpt lat="43.89514" lon="3.51159">
        <ele>331.68943538892</ele>
        <time>2016-05-21T13:46:53Z</time>
      </trkpt>
      <trkpt lat="43.89511" lon="3.51165">
        <ele>331.68943538892</ele>
        <time>2016-05-21T13:47:30Z</time>
      </trkpt>
      <trkpt lat="43.89511" lon="3.51165">
        <ele>331.68943538892</ele>
        <time>2016-05-21T13:47:33Z</time>
      </trkpt>
      <trkpt lat="43.89513" lon="3.51162">
        <ele>330.5821344351</ele>
        <time>2016-05-21T13:47:42Z</time>
      </trkpt>
      <trkpt lat="43.89519" lon="3.51144">
        <ele>329.66770296868</ele>
        <time>2016-05-21T13:47:59Z</time>
      </trkpt>
      <trkpt lat="43.89523" lon="3.5114">
        <ele>329.66770296868</ele>
        <time>2016-05-21T13:47:59Z</time>
      </trkpt>
      <trkpt lat="43.89526" lon="3.51135">
        <ele>328.91923079826</ele>
        <time>2016-05-21T13:48:07Z</time>
      </trkpt>
      <trkpt lat="43.89527" lon="3.51135">
        <ele>328.91923079826</ele>
        <time>2016-05-21T13:48:09Z</time>
      </trkpt>
      <trkpt lat="43.89569" lon="3.51056">
        <ele>328.44096429749</ele>
        <time>2016-05-21T13:49:18Z</time>
      </trkpt>
      <trkpt lat="43.89582" lon="3.51015">
        <ele>328.11251345082</ele>
        <time>2016-05-21T13:49:47Z</time>
      </trkpt>
      <trkpt lat="43.89582" lon="3.51014">
        <ele>328.11251345082</ele>
        <time>2016-05-21T13:49:48Z</time>
      </trkpt>
      <trkpt lat="43.89581" lon="3.51004">
        <ele>328.11251345082</ele>
        <time>2016-05-21T13:49:53Z</time>
      </trkpt>
      <trkpt lat="43.8959" lon="3.50973">
        <ele>327.9515607408</ele>
        <time>2016-05-21T13:50:29Z</time>
      </trkpt>
      <trkpt lat="43.89597" lon="3.50948">
        <ele>327.87309504242</ele>
        <time>2016-05-21T13:50:48Z</time>
      </trkpt>
      <trkpt lat="43.89602" lon="3.50934">
        <ele>327.87013248863</ele>
        <time>2016-05-21T13:51:06Z</time>
      </trkpt>
      <trkpt lat="43.8961" lon="3.50879">
        <ele>327.83507648288</ele>
        <time>2016-05-21T13:51:49Z</time>
      </trkpt>
      <trkpt lat="43.89627" lon="3.50864">
        <ele>327.72593848492</ele>
        <time>2016-05-21T13:52:06Z</time>
      </trkpt>
      <trkpt lat="43.89632" lon="3.50843">
        <ele>327.43194136464</ele>
        <time>2016-05-21T13:52:23Z</time>
      </trkpt>
      <trkpt lat="43.89632" lon="3.50802">
        <ele>328.00383422034</ele>
        <time>2016-05-21T13:53:03Z</time>
      </trkpt>
      <trkpt lat="43.89621" lon="3.50829">
        <ele>329.79306061597</ele>
        <time>2016-05-21T13:53:38Z</time>
      </trkpt>
      <trkpt lat="43.89619" lon="3.50854">
        <ele>332.31481063694</ele>
        <time>2016-05-21T13:53:52Z</time>
      </trkpt>
      <trkpt lat="43.89618" lon="3.50855">
        <ele>332.31481063694</ele>
        <time>2016-05-21T13:53:53Z</time>
      </trkpt>
      <trkpt lat="43.89632" lon="3.50871">
        <ele>334.97373917199</ele>
        <time>2016-05-21T13:54:36Z</time>
      </trkpt>
      <trkpt lat="43.89638" lon="3.50868">
        <ele>334.97373917199</ele>
        <time>2016-05-21T13:54:56Z</time>
      </trkpt>
      <trkpt lat="43.89644" lon="3.50863">
        <ele>337.23229766904</ele>
        <time>2016-05-21T13:54:56Z</time>
      </trkpt>
      <trkpt lat="43.89651" lon="3.50843">
        <ele>339.04034989695</ele>
        <time>2016-05-21T13:55:18Z</time>
      </trkpt>
      <trkpt lat="43.89653" lon="3.50826">
        <ele>341.67860525589</ele>
        <time>2016-05-21T13:55:44Z</time>
      </trkpt>
      <trkpt lat="43.89644" lon="3.50856">
        <ele>346.01441594817</ele>
        <time>2016-05-21T13:56:30Z</time>
      </trkpt>
      <trkpt lat="43.89643" lon="3.5088">
        <ele>350.26718438989</ele>
        <time>2016-05-21T13:56:30Z</time>
      </trkpt>
      <trkpt lat="43.89645" lon="3.50941">
        <ele>355.79941403304</ele>
        <time>2016-05-21T13:57:39Z</time>
      </trkpt>
      <trkpt lat="43.89652" lon="3.50938">
        <ele>355.79941403304</ele>
        <time>2016-05-21T13:57:53Z</time>
      </trkpt>
      <trkpt lat="43.89658" lon="3.50927">
        <ele>361.16081247503</ele>
        <time>2016-05-21T13:58:20Z</time>
      </trkpt>
      <trkpt lat="43.89659" lon="3.50945">
        <ele>366.44941856581</ele>
        <time>2016-05-21T13:58:38Z</time>
      </trkpt>
      <trkpt lat="43.89658" lon="3.50994">
        <ele>372.34736277228</ele>
        <time>2016-05-21T13:59:29Z</time>
      </trkpt>
      <trkpt lat="43.8968" lon="3.50984">
        <ele>378.87995478568</ele>
        <time>2016-05-21T14:00:48Z</time>
      </trkpt>
      <trkpt lat="43.89688" lon="3.50972">
        <ele>384.85862379145</ele>
        <time>2016-05-21T14:01:09Z</time>
      </trkpt>
      <trkpt lat="43.89693" lon="3.50963">
        <ele>384.85862379145</ele>
        <time>2016-05-21T14:01:13Z</time>
      </trkpt>
      <trkpt lat="43.89701" lon="3.50949">
        <ele>390.35128423258</ele>
        <time>2016-05-21T14:01:30Z</time>
      </trkpt>
      <trkpt lat="43.8971" lon="3.50936">
        <ele>395.39374476387</ele>
        <time>2016-05-21T14:01:48Z</time>
      </trkpt>
      <trkpt lat="43.89712" lon="3.50932">
        <ele>395.39374476387</ele>
        <time>2016-05-21T14:01:53Z</time>
      </trkpt>
      <trkpt lat="43.89716" lon="3.50923">
        <ele>400.35226224411</ele>
        <time>2016-05-21T14:02:10Z</time>
      </trkpt>
      <trkpt lat="43.89715" lon="3.50924">
        <ele>400.35226224411</ele>
        <time>2016-05-21T14:02:13Z</time>
      </trkpt>
      <trkpt lat="43.89709" lon="3.50935">
        <ele>405.37945249749</ele>
        <time>2016-05-21T14:02:31Z</time>
      </trkpt>
      <trkpt lat="43.89702" lon="3.50989">
        <ele>411.09247788022</ele>
        <time>2016-05-21T14:03:22Z</time>
      </trkpt>
      <trkpt lat="43.89701" lon="3.50997">
        <ele>411.09247788022</ele>
        <time>2016-05-21T14:03:25Z</time>
      </trkpt>
      <trkpt lat="43.89709" lon="3.51037">
        <ele>417.02403249276</ele>
        <time>2016-05-21T14:04:02Z</time>
      </trkpt>
      <trkpt lat="43.89723" lon="3.51057">
        <ele>422.62563734705</ele>
        <time>2016-05-21T14:04:17Z</time>
      </trkpt>
      <trkpt lat="43.89723" lon="3.51057">
        <ele>422.62563734705</ele>
        <time>2016-05-21T14:04:18Z</time>
      </trkpt>
      <trkpt lat="43.8975" lon="3.51072">
        <ele>428.12540563064</ele>
        <time>2016-05-21T14:04:53Z</time>
      </trkpt>
      <trkpt lat="43.89744" lon="3.51046">
        <ele>433.4615828558</ele>
        <time>2016-05-21T14:05:34Z</time>
      </trkpt>
      <trkpt lat="43.89742" lon="3.51016">
        <ele>438.63547273147</ele>
        <time>2016-05-21T14:05:58Z</time>
      </trkpt>
      <trkpt lat="43.8975" lon="3.51002">
        <ele>443.36093441519</ele>
        <time>2016-05-21T14:06:13Z</time>
      </trkpt>
      <trkpt lat="43.89788" lon="3.50916">
        <ele>448.70034412941</ele>
        <time>2016-05-21T14:07:40Z</time>
      </trkpt>
      <trkpt lat="43.89809" lon="3.50878">
        <ele>454.21002718349</ele>
        <time>2016-05-21T14:08:25Z</time>
      </trkpt>
      <trkpt lat="43.89796" lon="3.50904">
        <ele>459.03208718135</ele>
        <time>2016-05-21T14:08:59Z</time>
      </trkpt>
      <trkpt lat="43.89786" lon="3.50996">
        <ele>466.04881854328</ele>
        <time>2016-05-21T14:10:07Z</time>
      </trkpt>
      <trkpt lat="43.89786" lon="3.50997">
        <ele>466.04881854328</ele>
        <time>2016-05-21T14:10:08Z</time>
      </trkpt>
      <trkpt lat="43.89806" lon="3.50953">
        <ele>473.67375514799</ele>
        <time>2016-05-21T14:11:08Z</time>
      </trkpt>
      <trkpt lat="43.89809" lon="3.50945">
        <ele>473.67375514799</ele>
        <time>2016-05-21T14:11:12Z</time>
      </trkpt>
      <trkpt lat="43.89825" lon="3.50915">
        <ele>481.35798795204</ele>
        <time>2016-05-21T14:11:51Z</time>
      </trkpt>
      <trkpt lat="43.89838" lon="3.50896">
        <ele>488.73729263777</ele>
        <time>2016-05-21T14:12:09Z</time>
      </trkpt>
      <trkpt lat="43.89838" lon="3.50895">
        <ele>488.73729263777</ele>
        <time>2016-05-21T14:12:10Z</time>
      </trkpt>
      <trkpt lat="43.89838" lon="3.509">
        <ele>488.73729263777</ele>
        <time>2016-05-21T14:12:48Z</time>
      </trkpt>
      <trkpt lat="43.89834" lon="3.50907">
        <ele>495.83575938169</ele>
        <time>2016-05-21T14:12:51Z</time>
      </trkpt>
      <trkpt lat="43.89827" lon="3.50951">
        <ele>502.50399398475</ele>
        <time>2016-05-21T14:13:26Z</time>
      </trkpt>
      <trkpt lat="43.89826" lon="3.50963">
        <ele>502.50399398475</ele>
        <time>2016-05-21T14:13:26Z</time>
      </trkpt>
      <trkpt lat="43.89835" lon="3.50996">
        <ele>509.08078310228</ele>
        <time>2016-05-21T14:14:01Z</time>
      </trkpt>
      <trkpt lat="43.89839" lon="3.50997">
        <ele>509.08078310228</ele>
        <time>2016-05-21T14:14:08Z</time>
      </trkpt>
      <trkpt lat="43.89842" lon="3.50997">
        <ele>509.08078310228</ele>
        <time>2016-05-21T14:14:15Z</time>
      </trkpt>
      <trkpt lat="43.89867" lon="3.51008">
        <ele>516.47157111255</ele>
        <time>2016-05-21T14:15:18Z</time>
      </trkpt>
      <trkpt lat="43.8988" lon="3.51013">
        <ele>523.35176774788</ele>
        <time>2016-05-21T14:15:38Z</time>
      </trkpt>
      <trkpt lat="43.89883" lon="3.51014">
        <ele>523.35176774788</ele>
        <time>2016-05-21T14:15:43Z</time>
      </trkpt>
      <trkpt lat="43.89885" lon="3.51015">
        <ele>523.35176774788</ele>
        <time>2016-05-21T14:15:48Z</time>
      </trkpt>
      <trkpt lat="43.89905" lon="3.5104">
        <ele>530.12440090948</ele>
        <time>2016-05-21T14:16:37Z</time>
      </trkpt>
      <trkpt lat="43.89906" lon="3.51048">
        <ele>530.12440090948</ele>
        <time>2016-05-21T14:16:38Z</time>
      </trkpt>
      <trkpt lat="43.8991" lon="3.51082">
        <ele>536.12601385565</ele>
        <time>2016-05-21T14:16:50Z</time>
      </trkpt>
      <trkpt lat="43.89925" lon="3.51104">
        <ele>541.42178358209</ele>
        <time>2016-05-21T14:17:11Z</time>
      </trkpt>
      <trkpt lat="43.89932" lon="3.51109">
        <ele>541.42178358209</ele>
        <time>2016-05-21T14:17:19Z</time>
      </trkpt>
      <trkpt lat="43.89956" lon="3.51152">
        <ele>546.73738886791</ele>
        <time>2016-05-21T14:17:50Z</time>
      </trkpt>
      <trkpt lat="43.89952" lon="3.51172">
        <ele>551.62145893128</ele>
        <time>2016-05-21T14:18:08Z</time>
      </trkpt>
      <trkpt lat="43.89937" lon="3.51182">
        <ele>556.40673011081</ele>
        <time>2016-05-21T14:18:23Z</time>
      </trkpt>
      <trkpt lat="43.89912" lon="3.51265">
        <ele>561.22917941151</ele>
        <time>2016-05-21T14:19:16Z</time>
      </trkpt>
      <trkpt lat="43.89907" lon="3.51278">
        <ele>565.2926955988</ele>
        <time>2016-05-21T14:19:16Z</time>
      </trkpt>
      <trkpt lat="43.89905" lon="3.51281">
        <ele>565.2926955988</ele>
        <time>2016-05-21T14:19:19Z</time>
      </trkpt>
      <trkpt lat="43.899" lon="3.51291">
        <ele>568.72673642794</ele>
        <time>2016-05-21T14:19:25Z</time>
      </trkpt>
      <trkpt lat="43.89894" lon="3.51327">
        <ele>571.912679752</ele>
        <time>2016-05-21T14:19:50Z</time>
      </trkpt>
      <trkpt lat="43.89908" lon="3.51385">
        <ele>575.44980833961</ele>
        <time>2016-05-21T14:20:23Z</time>
      </trkpt>
      <trkpt lat="43.89909" lon="3.51385">
        <ele>575.44980833961</ele>
        <time>2016-05-21T14:20:28Z</time>
      </trkpt>
      <trkpt lat="43.89913" lon="3.51389">
        <ele>575.44980833961</ele>
        <time>2016-05-21T14:20:33Z</time>
      </trkpt>
      <trkpt lat="43.8992" lon="3.5142">
        <ele>578.1344456789</ele>
        <time>2016-05-21T14:21:00Z</time>
      </trkpt>
      <trkpt lat="43.89922" lon="3.51429">
        <ele>578.1344456789</ele>
        <time>2016-05-21T14:21:00Z</time>
      </trkpt>
      <trkpt lat="43.89923" lon="3.51444">
        <ele>580.16531298018</ele>
        <time>2016-05-21T14:21:19Z</time>
      </trkpt>
      <trkpt lat="43.89922" lon="3.51455">
        <ele>580.16531298018</ele>
        <time>2016-05-21T14:21:19Z</time>
      </trkpt>
      <trkpt lat="43.8992" lon="3.51468">
        <ele>581.61321862513</ele>
        <time>2016-05-21T14:21:28Z</time>
      </trkpt>
      <trkpt lat="43.899" lon="3.5152">
        <ele>582.48786494104</ele>
        <time>2016-05-21T14:22:04Z</time>
      </trkpt>
      <trkpt lat="43.899" lon="3.51527">
        <ele>582.48786494104</ele>
        <time>2016-05-21T14:22:08Z</time>
      </trkpt>
      <trkpt lat="43.8994" lon="3.51339">
        <ele>584.3419079511</ele>
        <time>2016-05-21T14:24:32Z</time>
      </trkpt>
      <trkpt lat="43.8995" lon="3.51379">
        <ele>586.83866634349</ele>
        <time>2016-05-21T14:25:55Z</time>
      </trkpt>
      <trkpt lat="43.8995" lon="3.51392">
        <ele>589.00148033727</ele>
        <time>2016-05-21T14:25:55Z</time>
      </trkpt>
      <trkpt lat="43.89956" lon="3.51402">
        <ele>589.00148033727</ele>
        <time>2016-05-21T14:26:03Z</time>
      </trkpt>
      <trkpt lat="43.89959" lon="3.51408">
        <ele>590.87748171054</ele>
        <time>2016-05-21T14:26:11Z</time>
      </trkpt>
      <trkpt lat="43.89975" lon="3.51472">
        <ele>594.68717912905</ele>
        <time>2016-05-21T14:28:33Z</time>
      </trkpt>
      <trkpt lat="43.89975" lon="3.51468">
        <ele>594.68717912905</ele>
        <time>2016-05-21T14:28:34Z</time>
      </trkpt>
      <trkpt lat="43.89981" lon="3.51449">
        <ele>598.26002141712</ele>
        <time>2016-05-21T14:28:46Z</time>
      </trkpt>
      <trkpt lat="43.89977" lon="3.51468">
        <ele>601.73275198623</ele>
        <time>2016-05-21T14:29:18Z</time>
      </trkpt>
      <trkpt lat="43.89969" lon="3.51512">
        <ele>605.0305116105</ele>
        <time>2016-05-21T14:29:34Z</time>
      </trkpt>
      <trkpt lat="43.89975" lon="3.51557">
        <ele>608.19963053435</ele>
        <time>2016-05-21T14:30:01Z</time>
      </trkpt>
      <trkpt lat="43.89977" lon="3.51559">
        <ele>608.19963053435</ele>
        <time>2016-05-21T14:30:03Z</time>
      </trkpt>
      <trkpt lat="43.89986" lon="3.51571">
        <ele>610.89419914627</ele>
        <time>2016-05-21T14:30:18Z</time>
      </trkpt>
      <trkpt lat="43.90005" lon="3.51583">
        <ele>613.2993325297</ele>
        <time>2016-05-21T14:30:38Z</time>
      </trkpt>
      <trkpt lat="43.90012" lon="3.51583">
        <ele>613.2993325297</ele>
        <time>2016-05-21T14:30:38Z</time>
      </trkpt>
      <trkpt lat="43.90044" lon="3.51569">
        <ele>615.58724347353</ele>
        <time>2016-05-21T14:31:29Z</time>
      </trkpt>
      <trkpt lat="43.90045" lon="3.5155">
        <ele>617.7591740597</ele>
        <time>2016-05-21T14:31:46Z</time>
      </trkpt>
      <trkpt lat="43.90071" lon="3.51543">
        <ele>619.80205130167</ele>
        <time>2016-05-21T14:32:16Z</time>
      </trkpt>
      <trkpt lat="43.9008" lon="3.51544">
        <ele>621.53104136679</ele>
        <time>2016-05-21T14:32:16Z</time>
      </trkpt>
      <trkpt lat="43.9012" lon="3.51565">
        <ele>623.1935297349</ele>
        <time>2016-05-21T14:32:51Z</time>
      </trkpt>
      <trkpt lat="43.90161" lon="3.51582">
        <ele>624.94668745796</ele>
        <time>2016-05-21T14:33:28Z</time>
      </trkpt>
      <trkpt lat="43.90174" lon="3.51582">
        <ele>626.41690159211</ele>
        <time>2016-05-21T14:33:28Z</time>
      </trkpt>
      <trkpt lat="43.90186" lon="3.51581">
        <ele>627.67652610266</ele>
        <time>2016-05-21T14:33:36Z</time>
      </trkpt>
      <trkpt lat="43.9021" lon="3.51587">
        <ele>628.51917388877</ele>
        <time>2016-05-21T14:34:01Z</time>
      </trkpt>
      <trkpt lat="43.90211" lon="3.5159">
        <ele>628.51917388877</ele>
        <time>2016-05-21T14:34:03Z</time>
      </trkpt>
      <trkpt lat="43.90215" lon="3.51603">
        <ele>629.20131655581</ele>
        <time>2016-05-21T14:34:18Z</time>
      </trkpt>
      <trkpt lat="43.90215" lon="3.51608">
        <ele>629.20131655581</ele>
        <time>2016-05-21T14:34:24Z</time>
      </trkpt>
      <trkpt lat="43.9022" lon="3.51596">
        <ele>628.00089229476</ele>
        <time>2016-05-21T14:36:08Z</time>
      </trkpt>
      <trkpt lat="43.9022" lon="3.51595">
        <ele>628.00089229476</ele>
        <time>2016-05-21T14:36:18Z</time>
      </trkpt>
    </trkseg>
  </trk>
</gpx>